createdAt,value
2022-09-07T00:02:07.841Z,18.98
2022-09-07T00:07:11.642Z,18.95
2022-09-07T00:12:15.418Z,18.93
2022-09-07T00:17:20.524Z,18.84
2022-09-07T00:22:24.273Z,18.81
2022-09-07T00:27:28.031Z,18.74
2022-09-07T00:32:33.184Z,18.69
2022-09-07T00:37:36.880Z,18.60
2022-09-07T00:42:40.672Z,18.49
2022-09-07T00:47:52.788Z,18.49
2022-09-07T00:53:02.719Z,18.44
2022-09-07T00:58:08.143Z,18.44
2022-09-07T01:03:15.484Z,18.27
2022-09-07T01:08:19.665Z,18.29
2022-09-07T01:13:23.594Z,18.25
2022-09-07T01:18:34.508Z,18.21
2022-09-07T01:24:12.253Z,18.21
2022-09-07T01:29:24.846Z,18.24
2022-09-07T01:34:28.624Z,18.21
2022-09-07T01:39:41.556Z,18.18
2022-09-07T01:44:51.345Z,18.11
2022-09-07T01:50:00.752Z,18.13
2022-09-07T01:55:11.679Z,18.14
2022-09-07T02:00:20.098Z,18.14
2022-09-07T02:05:29.127Z,18.10
2022-09-07T02:10:39.831Z,18.03
2022-09-07T02:15:50.544Z,17.94
2022-09-07T02:20:58.740Z,17.91
2022-09-07T02:26:04.705Z,17.90
2022-09-07T02:31:09.911Z,17.86
2022-09-07T02:36:16.664Z,17.77
2022-09-07T02:41:32.365Z,17.76
2022-09-07T02:46:56.471Z,17.73
2022-09-07T02:52:08.036Z,17.61
2022-09-07T02:57:24.032Z,17.66
2022-09-07T03:02:36.729Z,17.63
2022-09-07T03:07:46.197Z,17.59
2022-09-07T03:12:51.684Z,17.40
2022-09-07T03:17:56.827Z,17.48
2022-09-07T03:23:00.517Z,17.58
2022-09-07T03:28:04.667Z,17.54
2022-09-07T03:33:09.687Z,17.52
2022-09-07T03:38:13.726Z,17.51
2022-09-07T03:43:17.682Z,17.44
2022-09-07T03:48:22.815Z,17.36
2022-09-07T03:53:26.738Z,17.39
2022-09-07T03:58:32.203Z,17.43
2022-09-07T04:03:38.007Z,17.44
2022-09-07T04:08:43.129Z,17.39
2022-09-07T04:13:47.740Z,17.38
2022-09-07T04:18:54.715Z,17.30
2022-09-07T04:23:58.984Z,17.30
2022-09-07T04:29:04.053Z,17.29
2022-09-07T04:34:09.309Z,17.34
2022-09-07T04:39:13.217Z,17.32
2022-09-07T04:44:17.296Z,17.16
2022-09-07T04:49:22.436Z,17.09
2022-09-07T04:54:26.478Z,17.14
2022-09-07T04:59:30.284Z,17.05
2022-09-07T05:04:37.564Z,17.00
2022-09-07T05:09:41.275Z,16.97
2022-09-07T05:14:45.101Z,16.79
2022-09-07T05:19:50.429Z,16.83
2022-09-07T05:24:54.160Z,16.83
2022-09-07T05:35:06.346Z,16.75
2022-09-07T05:40:11.401Z,16.77
2022-09-07T05:45:15.875Z,16.76
2022-09-07T05:50:20.995Z,16.72
2022-09-07T05:55:31.663Z,16.88
2022-09-07T06:00:35.352Z,16.87
2022-09-07T06:05:40.399Z,16.82
2022-09-07T06:10:44.692Z,16.89
2022-09-07T06:15:48.765Z,16.98
2022-09-07T06:20:53.835Z,17.00
2022-09-07T06:25:57.556Z,17.12
2022-09-07T06:31:01.927Z,17.17
2022-09-07T06:36:09.581Z,17.07
2022-09-07T06:52:04.510Z,17.47
2022-09-07T06:57:09.512Z,17.36
2022-09-07T07:02:14.990Z,17.35
2022-09-07T07:07:20.123Z,17.00
2022-09-07T07:17:27.263Z,17.32
2022-09-07T07:22:47.660Z,17.40
2022-09-07T07:27:51.544Z,17.40
2022-09-07T07:33:15.060Z,17.62
2022-09-07T07:43:44.066Z,17.92
2022-09-07T07:48:49.470Z,18.07
2022-09-07T07:53:54.985Z,18.29
2022-09-07T07:58:58.947Z,18.28
2022-09-07T08:04:03.005Z,18.47
2022-09-07T08:09:08.048Z,18.56
2022-09-07T08:14:11.720Z,18.36
2022-09-07T08:19:15.485Z,18.73
2022-09-07T08:24:20.947Z,18.99
2022-09-07T08:29:24.840Z,19.08
2022-09-07T08:34:28.517Z,19.27
2022-09-07T08:39:33.655Z,19.48
2022-09-07T08:44:42.997Z,19.52
2022-09-07T08:49:52.204Z,19.94
2022-09-07T08:55:02.700Z,20.11
2022-09-07T09:00:09.239Z,20.31
2022-09-07T09:05:28.718Z,20.38
2022-09-07T09:10:46.881Z,20.53
2022-09-07T09:15:59.005Z,20.81
2022-09-07T09:21:02.938Z,20.83
2022-09-07T09:26:13.488Z,20.89
2022-09-07T09:31:20.233Z,21.22
2022-09-07T09:36:26.569Z,21.85
2022-09-07T09:41:37.940Z,22.34
2022-09-07T09:46:41.667Z,22.35
2022-09-07T09:57:18.826Z,23.67
2022-09-07T10:07:55.270Z,24.55
2022-09-07T10:13:00.789Z,24.45
2022-09-07T10:18:09.602Z,25.21
2022-09-07T10:23:23.627Z,25.58
2022-09-07T10:29:06.388Z,26.47
2022-09-07T10:39:27.094Z,27.14
2022-09-07T10:44:47.211Z,27.55
2022-09-07T10:55:26.438Z,27.71
2022-09-07T11:00:39.360Z,28.51
2022-09-07T11:05:56.434Z,27.89
2022-09-07T11:11:10.772Z,28.38
2022-09-07T11:22:02.581Z,29.60
2022-09-07T11:27:12.104Z,29.93
2022-09-07T11:32:22.843Z,30.11
2022-09-07T11:37:31.709Z,30.45
2022-09-07T11:42:43.880Z,29.59
2022-09-07T11:47:54.396Z,29.62
2022-09-07T11:53:00.810Z,29.69
2022-09-07T11:58:29.139Z,30.37
2022-09-07T12:04:06.044Z,28.72
2022-09-07T12:09:32.008Z,29.21
2022-09-07T12:14:45.338Z,29.68
2022-09-07T12:20:11.132Z,29.20
2022-09-07T12:25:19.637Z,30.91
2022-09-07T12:30:57.832Z,30.52
2022-09-07T12:36:23.599Z,30.30
2022-09-07T12:41:42.595Z,30.54
2022-09-07T12:46:49.797Z,30.86
2022-09-07T12:52:11.290Z,31.92
2022-09-07T12:57:31.915Z,32.44
2022-09-07T13:02:57.828Z,31.50
2022-09-07T13:08:42.124Z,31.36
2022-09-07T13:14:06.228Z,31.13
2022-09-07T13:19:14.989Z,31.69
2022-09-07T13:24:55.214Z,31.07
2022-09-07T13:30:04.131Z,31.74
2022-09-07T13:35:16.545Z,30.55
2022-09-07T13:40:27.040Z,30.19
2022-09-07T13:45:35.592Z,30.65
2022-09-07T13:50:46.601Z,30.78
2022-09-07T13:56:00.892Z,31.09
2022-09-07T14:01:08.243Z,30.81
2022-09-07T14:06:16.664Z,30.01
2022-09-07T14:11:25.045Z,29.80
2022-09-07T14:16:28.806Z,29.35
2022-09-07T14:21:32.673Z,29.91
2022-09-07T14:26:47.879Z,30.48
2022-09-07T14:31:52.605Z,30.52
2022-09-07T14:37:01.698Z,30.56
2022-09-07T14:42:08.075Z,29.72
2022-09-07T14:47:24.907Z,29.77
2022-09-07T14:52:38.019Z,29.74
2022-09-07T14:57:45.716Z,29.36
2022-09-07T15:02:49.465Z,29.56
2022-09-07T15:07:55.639Z,29.10
2022-09-07T15:13:02.120Z,28.25
2022-09-07T15:18:09.107Z,29.12
2022-09-07T15:23:14.961Z,28.92
2022-09-07T15:33:49.249Z,29.24
2022-09-07T15:39:00.611Z,29.76
2022-09-07T15:44:06.235Z,29.78
2022-09-07T15:49:10.320Z,29.79
2022-09-07T15:54:17.380Z,29.99
2022-09-07T15:59:22.612Z,30.14
2022-09-07T16:04:26.363Z,29.44
2022-09-07T16:09:30.127Z,29.39
2022-09-07T16:14:35.308Z,29.52
2022-09-07T16:19:40.911Z,29.00
2022-09-07T16:24:45.016Z,28.91
2022-09-07T16:29:50.916Z,28.80
2022-09-07T16:34:54.697Z,28.43
2022-09-07T16:39:58.487Z,28.39
2022-09-07T16:50:27.363Z,28.39
2022-09-07T16:55:31.308Z,28.22
2022-09-07T17:00:37.931Z,27.94
2022-09-07T17:05:42.944Z,26.82
2022-09-07T17:10:46.616Z,27.30
2022-09-07T17:15:51.646Z,27.13
2022-09-07T17:20:56.679Z,27.19
2022-09-07T17:26:06.379Z,26.91
2022-09-07T17:32:24.052Z,26.51
2022-09-07T17:36:36.782Z,26.20
2022-09-07T17:41:40.499Z,25.97
2022-09-07T17:46:45.603Z,25.83
2022-09-07T17:51:49.282Z,25.75
2022-09-07T17:56:53.015Z,25.53
2022-09-07T18:01:58.058Z,25.35
2022-09-07T18:07:01.784Z,25.25
2022-09-07T18:12:06.053Z,25.33
2022-09-07T18:17:11.209Z,25.03
2022-09-07T18:22:15.283Z,24.87
2022-09-07T18:27:21.079Z,24.61
2022-09-07T18:32:26.127Z,24.49
2022-09-07T18:37:31.787Z,24.35
2022-09-07T18:42:35.586Z,24.16
2022-09-07T18:47:40.783Z,23.97
2022-09-07T18:52:52.558Z,23.78
2022-09-07T18:57:56.890Z,23.66
2022-09-07T19:03:01.976Z,23.74
2022-09-07T19:08:05.666Z,23.60
2022-09-07T19:13:09.383Z,23.54
2022-09-07T19:18:14.722Z,23.76
2022-09-07T19:23:18.386Z,23.62
2022-09-07T19:28:22.184Z,23.76
2022-09-07T19:33:27.379Z,23.62
2022-09-07T19:38:31.204Z,23.61
2022-09-07T19:43:35.402Z,23.64
2022-09-07T19:48:40.751Z,23.55
2022-09-07T19:53:46.972Z,23.42
2022-09-07T19:58:51.184Z,23.29
2022-09-07T20:03:59.645Z,23.13
2022-09-07T20:09:03.403Z,23.02
2022-09-07T20:14:07.559Z,22.89
2022-09-07T20:19:15.036Z,22.76
2022-09-07T20:24:22.241Z,22.65
2022-09-07T20:29:28.568Z,22.53
2022-09-07T20:34:34.208Z,22.32
2022-09-07T20:39:39.540Z,22.16
2022-09-07T20:44:43.514Z,22.01
2022-09-07T20:49:48.639Z,21.90
2022-09-07T20:54:52.453Z,21.92
2022-09-07T20:59:56.202Z,21.94
2022-09-07T21:05:01.342Z,21.96
2022-09-07T21:10:06.914Z,21.91
2022-09-07T21:15:11.216Z,21.91
2022-09-07T21:20:16.500Z,21.92
2022-09-07T21:25:20.155Z,21.92
2022-09-07T21:30:24.079Z,21.91
2022-09-07T21:35:29.068Z,21.90
2022-09-07T21:40:32.740Z,21.90
2022-09-07T21:45:36.381Z,21.88
2022-09-07T21:50:41.493Z,21.91
2022-09-07T21:55:45.420Z,21.89
2022-09-07T22:00:49.174Z,21.91
2022-09-07T22:05:54.350Z,21.80
2022-09-07T22:11:05.090Z,21.81
2022-09-07T22:16:09.650Z,21.77
2022-09-07T22:21:17.469Z,21.75
2022-09-07T22:26:22.752Z,21.73
2022-09-07T22:31:28.585Z,21.67
2022-09-07T22:36:35.832Z,21.68
2022-09-07T22:41:40.478Z,21.62
2022-09-07T22:46:46.008Z,21.58
2022-09-07T22:51:51.330Z,21.58
2022-09-07T22:56:54.983Z,21.54
2022-09-07T23:01:58.669Z,21.55
2022-09-07T23:07:06.567Z,21.52
2022-09-07T23:12:10.243Z,21.45
2022-09-07T23:17:13.890Z,21.41
2022-09-07T23:22:18.909Z,21.38
2022-09-07T23:27:22.568Z,21.35
2022-09-07T23:32:26.238Z,21.36
2022-09-07T23:37:31.269Z,21.27
2022-09-07T23:42:34.923Z,21.27
2022-09-07T23:47:38.593Z,21.14
2022-09-07T23:52:43.735Z,21.14
2022-09-07T23:57:48.559Z,21.10
